createdAt,value
2019-06-27T00:02:09.111Z,98600.03
2019-06-27T00:04:39.069Z,98601.59
2019-06-27T00:07:09.377Z,98597.69
2019-06-27T00:09:39.325Z,98595.58
2019-06-27T00:12:09.365Z,98595.33
2019-06-27T00:14:39.333Z,98600.53
2019-06-27T00:17:09.308Z,98598.20
2019-06-27T00:19:39.239Z,98598.45
2019-06-27T00:22:09.255Z,98595.33
2019-06-27T00:24:39.189Z,98602.89
2019-06-27T00:27:09.151Z,98606.80
2019-06-27T00:29:39.099Z,98605.50
2019-06-27T00:32:09.392Z,98606.27
2019-06-27T00:34:39.323Z,98614.33
2019-06-27T00:37:09.317Z,98609.64
2019-06-27T00:39:39.249Z,98612.23
2019-06-27T00:42:09.289Z,98614.84
2019-06-27T00:44:39.255Z,98617.97
2019-06-27T00:47:09.559Z,98617.69
2019-06-27T00:49:39.643Z,98624.70
2019-06-27T00:52:09.929Z,98626.27
2019-06-27T00:54:39.878Z,98627.04
2019-06-27T00:57:14.359Z,98621.31
2019-06-27T00:59:41.653Z,98624.16
2019-06-27T01:02:11.694Z,98619.77
2019-06-27T01:04:41.649Z,98627.03
2019-06-27T01:07:11.667Z,98626.46
2019-06-27T01:09:41.906Z,98625.64
2019-06-27T01:12:11.967Z,98622.27
2019-06-27T01:14:42.031Z,98620.43
2019-06-27T01:17:12.146Z,98625.38
2019-06-27T01:19:42.085Z,98618.62
2019-06-27T01:22:12.095Z,98625.89
2019-06-27T01:24:42.436Z,98621.20
2019-06-27T01:27:28.843Z,98623.24
2019-06-27T01:29:44.560Z,98616.01
2019-06-27T01:32:14.516Z,98619.44
2019-06-27T01:34:44.467Z,98617.11
2019-06-27T01:37:15.269Z,98622.30
2019-06-27T01:39:45.438Z,98625.38
2019-06-27T01:42:15.596Z,98624.56
2019-06-27T01:44:50.324Z,98627.95
2019-06-27T01:47:20.423Z,98623.75
2019-06-27T01:49:50.372Z,98626.16
2019-06-27T01:52:20.357Z,98630.59
2019-06-27T01:54:50.293Z,98629.04
2019-06-27T01:57:20.391Z,98637.08
2019-06-27T01:59:50.398Z,98628.95
2019-06-27T02:02:21.017Z,98636.70
2019-06-27T02:04:51.174Z,98642.66
2019-06-27T02:07:21.253Z,98639.03
2019-06-27T02:09:51.235Z,98637.42
2019-06-27T02:12:21.185Z,98637.17
2019-06-27T02:14:51.091Z,98632.09
2019-06-27T02:17:21.170Z,98641.20
2019-06-27T02:19:51.064Z,98641.98
2019-06-27T02:22:21.005Z,98649.18
2019-06-27T02:24:51.111Z,98643.42
2019-06-27T02:27:21.048Z,98650.16
2019-06-27T02:29:50.939Z,98648.58
2019-06-27T02:32:20.873Z,98654.00
2019-06-27T02:34:51.049Z,98652.17
2019-06-27T02:37:20.973Z,98651.49
2019-06-27T02:39:51.285Z,98653.05
2019-06-27T02:42:21.293Z,98665.78
2019-06-27T02:44:51.421Z,98660.77
2019-06-27T02:47:21.725Z,98654.00
2019-06-27T02:49:51.634Z,98654.03
2019-06-27T02:52:21.658Z,98649.02
2019-06-27T02:54:51.561Z,98650.35
2019-06-27T02:57:21.752Z,98653.74
2019-06-27T02:59:51.755Z,98652.91
2019-06-27T03:02:21.770Z,98662.63
2019-06-27T03:04:52.220Z,98655.44
2019-06-27T03:07:22.332Z,98659.08
2019-06-27T03:09:52.308Z,98658.11
2019-06-27T03:12:22.396Z,98651.55
2019-06-27T03:14:52.608Z,98653.09
2019-06-27T03:17:22.612Z,98657.39
2019-06-27T03:19:52.606Z,98659.56
2019-06-27T03:22:22.518Z,98651.75
2019-06-27T03:24:52.458Z,98658.53
2019-06-27T03:27:22.352Z,98663.62
2019-06-27T03:29:52.276Z,98666.76
2019-06-27T03:32:22.491Z,98660.25
2019-06-27T03:34:52.494Z,98658.98
2019-06-27T03:37:22.399Z,98655.30
2019-06-27T03:39:52.417Z,98658.17
2019-06-27T03:42:22.319Z,98664.69
2019-06-27T03:45:03.152Z,98665.72
2019-06-27T03:47:33.088Z,98663.91
2019-06-27T03:50:03.096Z,98665.27
2019-06-27T03:52:33.215Z,98665.58
2019-06-27T03:55:03.214Z,98670.55
2019-06-27T03:57:33.177Z,98671.83
2019-06-27T04:00:03.642Z,98672.63
2019-06-27T04:02:33.714Z,98674.78
2019-06-27T04:05:03.832Z,98669.94
2019-06-27T04:07:33.814Z,98672.70
2019-06-27T04:10:04.130Z,98675.44
2019-06-27T04:12:34.264Z,98675.55
2019-06-27T04:15:04.319Z,98677.78
2019-06-27T04:17:34.189Z,98679.14
2019-06-27T04:20:04.419Z,98680.43
2019-06-27T04:22:34.344Z,98678.28
2019-06-27T04:25:04.467Z,98687.61
2019-06-27T04:27:34.361Z,98688.05
2019-06-27T04:30:04.395Z,98690.80
2019-06-27T04:32:34.309Z,98690.29
2019-06-27T04:35:04.548Z,98690.37
2019-06-27T04:37:34.524Z,98687.48
2019-06-27T04:40:04.942Z,98695.95
2019-06-27T04:42:34.912Z,98693.91
2019-06-27T04:45:05.466Z,98699.42
2019-06-27T04:47:35.347Z,98689.58
2019-06-27T04:50:05.652Z,98694.94
2019-06-27T04:52:35.566Z,98690.81
2019-06-27T04:55:05.739Z,98691.39
2019-06-27T04:57:35.678Z,98692.34
2019-06-27T05:00:06.251Z,98693.97
2019-06-27T05:02:36.384Z,98689.55
2019-06-27T05:05:06.598Z,98691.17
2019-06-27T05:07:36.579Z,98692.52
2019-06-27T05:10:06.970Z,98686.44
2019-06-27T05:12:36.858Z,98686.95
2019-06-27T05:15:07.444Z,98683.48
2019-06-27T05:17:37.400Z,98690.53
2019-06-27T05:20:07.688Z,98684.35
2019-06-27T05:22:37.767Z,98681.24
2019-06-27T05:25:07.810Z,98687.84
2019-06-27T05:27:37.894Z,98685.31
2019-06-27T05:30:10.309Z,98683.59
2019-06-27T05:32:40.166Z,98691.66
2019-06-27T05:35:10.794Z,98688.74
2019-06-27T05:37:41.455Z,98686.84
2019-06-27T05:40:11.487Z,98686.37
2019-06-27T05:42:41.457Z,98686.48
2019-06-27T05:45:12.308Z,98689.62
2019-06-27T05:47:42.293Z,98692.17
2019-06-27T05:50:12.866Z,98693.36
2019-06-27T05:52:42.815Z,98692.95
2019-06-27T05:55:12.880Z,98692.30
2019-06-27T05:57:43.060Z,98691.95
2019-06-27T06:00:27.754Z,98696.05
2019-06-27T06:02:45.768Z,98699.09
2019-06-27T06:05:15.697Z,98693.22
2019-06-27T06:07:45.676Z,98698.26
2019-06-27T06:10:16.478Z,98695.25
2019-06-27T06:12:46.418Z,98704.38
2019-06-27T06:15:16.750Z,98705.79
2019-06-27T06:17:46.758Z,98709.38
2019-06-27T06:20:17.702Z,98707.42
2019-06-27T06:22:47.626Z,98714.17
2019-06-27T06:25:18.254Z,98713.49
2019-06-27T06:27:48.394Z,98713.14
2019-06-27T06:30:18.551Z,98713.52
2019-06-27T06:32:48.581Z,98717.97
2019-06-27T06:35:18.856Z,98720.42
2019-06-27T06:37:49.279Z,98723.91
2019-06-27T06:40:19.431Z,98730.19
2019-06-27T06:42:49.426Z,98729.44
2019-06-27T06:45:19.402Z,98725.96
2019-06-27T06:47:49.718Z,98739.12
2019-06-27T06:50:23.149Z,98741.64
2019-06-27T06:52:51.531Z,98746.32
2019-06-27T06:55:22.297Z,98745.98
2019-06-27T06:57:52.212Z,98743.68
2019-06-27T07:00:23.372Z,98747.69
2019-06-27T07:02:53.523Z,98753.48
2019-06-27T07:05:23.475Z,98751.86
2019-06-27T07:07:53.437Z,98751.81
2019-06-27T07:10:23.532Z,98749.55
2019-06-27T07:12:53.433Z,98752.47
2019-06-27T07:15:23.390Z,98756.15
2019-06-27T07:17:53.416Z,98756.52
2019-06-27T07:20:23.521Z,98751.20
2019-06-27T07:22:53.428Z,98756.73
2019-06-27T07:25:25.087Z,98758.70
2019-06-27T07:27:55.036Z,98754.38
2019-06-27T07:30:25.220Z,98756.30
2019-06-27T07:32:55.606Z,98758.63
2019-06-27T07:35:25.703Z,98759.97
2019-06-27T07:37:56.398Z,98761.16
2019-06-27T07:40:26.278Z,98765.58
2019-06-27T07:42:56.990Z,98767.56
2019-06-27T07:45:26.922Z,98767.92
2019-06-27T07:47:56.856Z,98767.77
2019-06-27T07:50:26.744Z,98774.67
2019-06-27T07:52:56.675Z,98767.56
2019-06-27T07:55:26.859Z,98766.14
2019-06-27T07:57:57.283Z,98770.20
2019-06-27T08:00:27.813Z,98768.59
2019-06-27T08:02:57.707Z,98774.75
2019-06-27T08:05:27.611Z,98770.20
2019-06-27T08:07:57.767Z,98764.91
2019-06-27T08:10:27.729Z,98770.28
2019-06-27T08:12:57.698Z,98775.10
2019-06-27T08:15:30.589Z,98773.09
2019-06-27T08:18:00.521Z,98779.16
2019-06-27T08:20:30.415Z,98774.76
2019-06-27T08:23:01.497Z,98772.78
2019-06-27T08:25:31.396Z,98776.98
2019-06-27T08:28:01.338Z,98773.17
2019-06-27T08:30:31.865Z,98777.83
2019-06-27T08:33:02.630Z,98776.05
2019-06-27T08:35:33.726Z,98769.84
2019-06-27T08:38:03.616Z,98773.59
2019-06-27T08:40:33.583Z,98767.77
2019-06-27T08:43:03.564Z,98774.51
2019-06-27T08:45:34.082Z,98775.91
2019-06-27T08:48:03.997Z,98777.20
2019-06-27T08:50:33.893Z,98764.67
2019-06-27T08:53:04.011Z,98770.77
2019-06-27T08:55:34.045Z,98762.66
2019-06-27T08:58:03.940Z,98773.45
2019-06-27T09:00:33.827Z,98771.17
2019-06-27T09:03:03.806Z,98771.45
2019-06-27T09:05:33.674Z,98773.92
2019-06-27T09:08:03.945Z,98775.45
2019-06-27T09:10:34.131Z,98759.09
2019-06-27T09:13:04.037Z,98762.39
2019-06-27T09:15:33.921Z,98768.17
2019-06-27T09:18:04.090Z,98766.67
2019-06-27T09:20:34.353Z,98775.42
2019-06-27T09:23:04.577Z,98770.08
2019-06-27T09:25:34.463Z,98768.55
2019-06-27T09:28:05.081Z,98772.88
2019-06-27T09:30:35.038Z,98762.62
2019-06-27T09:33:05.030Z,98765.98
2019-06-27T09:35:36.906Z,98769.84
2019-06-27T09:38:07.060Z,98766.03
2019-06-27T09:40:37.813Z,98765.28
2019-06-27T09:43:07.981Z,98770.75
2019-06-27T09:45:38.028Z,98768.36
2019-06-27T09:48:08.332Z,98766.56
2019-06-27T09:50:38.270Z,98769.52
2019-06-27T09:53:08.348Z,98769.41
2019-06-27T09:55:38.830Z,98772.19
2019-06-27T09:58:09.053Z,98766.66
2019-06-27T10:00:39.216Z,98769.41
2019-06-27T10:03:09.240Z,98766.27
2019-06-27T10:05:39.353Z,98761.27
2019-06-27T10:08:09.368Z,98771.45
2019-06-27T10:10:39.341Z,98764.44
2019-06-27T10:13:09.255Z,98764.27
2019-06-27T10:15:39.858Z,98754.95
2019-06-27T10:18:09.878Z,98758.44
2019-06-27T10:20:39.756Z,98758.69
2019-06-27T10:23:09.774Z,98763.77
2019-06-27T10:25:39.652Z,98757.75
2019-06-27T10:28:10.222Z,98758.58
2019-06-27T10:30:40.128Z,98748.91
2019-06-27T10:33:10.057Z,98756.67
2019-06-27T10:35:40.207Z,98746.86
2019-06-27T10:38:10.101Z,98745.84
2019-06-27T10:40:40.067Z,98742.02
2019-06-27T10:43:09.958Z,98737.34
2019-06-27T10:45:39.839Z,98740.38
2019-06-27T10:48:09.749Z,98742.11
2019-06-27T10:50:40.263Z,98742.53
2019-06-27T10:53:10.470Z,98738.20
2019-06-27T10:55:40.391Z,98744.55
2019-06-27T10:58:10.375Z,98746.47
2019-06-27T11:00:40.251Z,98739.41
2019-06-27T11:03:15.339Z,98734.74
2019-06-27T11:05:41.885Z,98735.23
2019-06-27T11:08:11.879Z,98732.28
2019-06-27T11:10:41.857Z,98733.05
2019-06-27T11:13:11.764Z,98725.41
2019-06-27T11:15:41.696Z,98726.87
2019-06-27T11:18:11.628Z,98714.59
2019-06-27T11:20:41.537Z,98724.05
2019-06-27T11:23:12.268Z,98724.18
2019-06-27T11:25:42.172Z,98723.25
2019-06-27T11:28:12.190Z,98706.55
2019-06-27T11:30:42.531Z,98708.45
2019-06-27T11:33:12.755Z,98704.02
2019-06-27T11:35:42.688Z,98705.98
2019-06-27T11:38:12.690Z,98702.36
2019-06-27T11:40:42.635Z,98701.12
2019-06-27T11:43:12.590Z,98708.97
2019-06-27T11:45:42.718Z,98708.48
2019-06-27T11:48:12.637Z,98706.18
2019-06-27T11:50:43.201Z,98697.78
2019-06-27T11:53:13.127Z,98704.14
2019-06-27T11:55:43.070Z,98701.69
2019-06-27T11:58:12.948Z,98694.52
2019-06-27T12:00:43.720Z,98693.58
2019-06-27T12:03:14.586Z,98694.47
2019-06-27T12:05:44.589Z,98701.83
2019-06-27T12:08:14.463Z,98687.82
2019-06-27T12:10:44.630Z,98695.59
2019-06-27T12:13:14.498Z,98690.58
2019-06-27T12:15:44.431Z,98689.70
2019-06-27T12:18:14.609Z,98681.02
2019-06-27T12:20:44.595Z,98684.30
2019-06-27T12:23:14.476Z,98683.72
2019-06-27T12:25:44.384Z,98681.02
2019-06-27T12:28:14.432Z,98671.02
2019-06-27T12:30:44.480Z,98682.84
2019-06-27T12:33:14.663Z,98678.03
2019-06-27T12:35:44.576Z,98671.77
2019-06-27T12:38:14.536Z,98659.13
2019-06-27T12:40:44.532Z,98673.66
2019-06-27T12:43:14.735Z,98674.58
2019-06-27T12:45:44.664Z,98668.70
2019-06-27T12:48:14.554Z,98672.80
2019-06-27T12:50:45.291Z,98667.11
2019-06-27T12:53:15.168Z,98668.09
2019-06-27T12:55:45.109Z,98663.72
2019-06-27T12:58:15.349Z,98669.78
2019-06-27T13:00:45.242Z,98660.54
2019-06-27T13:03:15.120Z,98657.17
2019-06-27T13:05:45.567Z,98658.00
2019-06-27T13:08:15.551Z,98655.23
2019-06-27T13:10:45.442Z,98658.66
2019-06-27T13:13:15.367Z,98651.11
2019-06-27T13:15:46.025Z,98654.33
2019-06-27T13:18:16.397Z,98650.09
2019-06-27T13:20:57.397Z,98652.66
2019-06-27T13:23:18.392Z,98644.00
2019-06-27T13:25:48.776Z,98642.05
2019-06-27T13:28:18.866Z,98641.72
2019-06-27T13:30:48.824Z,98642.19
2019-06-27T13:33:18.932Z,98638.29
2019-06-27T13:35:49.214Z,98644.25
2019-06-27T13:38:19.324Z,98632.95
2019-06-27T13:40:49.276Z,98632.77
2019-06-27T13:43:19.188Z,98631.30
2019-06-27T13:45:49.886Z,98629.36
2019-06-27T13:48:19.836Z,98617.34
2019-06-27T13:50:49.862Z,98621.10
2019-06-27T13:53:19.909Z,98616.19
2019-06-27T13:55:49.820Z,98619.42
2019-06-27T13:58:20.363Z,98611.73
2019-06-27T14:00:50.417Z,98605.98
2019-06-27T14:03:20.272Z,98619.62
2019-06-27T14:05:50.973Z,98613.16
2019-06-27T14:08:21.594Z,98608.79
2019-06-27T14:10:51.634Z,98607.14
2019-06-27T14:13:21.541Z,98602.48
2019-06-27T14:15:51.604Z,98610.93
2019-06-27T14:18:21.485Z,98610.61
2019-06-27T14:20:52.009Z,98599.16
2019-06-27T14:23:21.938Z,98603.12
2019-06-27T14:25:51.875Z,98601.72
2019-06-27T14:28:22.009Z,98590.30
2019-06-27T14:30:51.910Z,98592.23
2019-06-27T14:33:23.607Z,98598.09
2019-06-27T14:35:55.237Z,98592.91
2019-06-27T14:38:25.236Z,98591.63
2019-06-27T14:40:55.139Z,98585.80
2019-06-27T14:43:25.019Z,98588.56
2019-06-27T14:45:55.241Z,98583.91
2019-06-27T14:48:25.141Z,98579.80
2019-06-27T14:50:55.069Z,98585.41
2019-06-27T14:53:24.974Z,98583.45
2019-06-27T14:55:54.907Z,98580.50
2019-06-27T14:58:25.072Z,98579.07
2019-06-27T15:00:55.098Z,98575.00
2019-06-27T15:03:25.442Z,98565.89
2019-06-27T15:05:55.472Z,98566.55
2019-06-27T15:08:25.360Z,98561.19
2019-06-27T15:10:55.276Z,98565.30
2019-06-27T15:13:25.616Z,98566.91
2019-06-27T15:16:10.768Z,98563.47
2019-06-27T15:18:27.425Z,98567.77
2019-06-27T15:20:57.496Z,98561.84
2019-06-27T15:23:29.199Z,98561.79
2019-06-27T15:25:59.170Z,98568.20
2019-06-27T15:28:29.044Z,98551.96
2019-06-27T15:30:58.973Z,98564.23
2019-06-27T15:33:28.850Z,98555.14
2019-06-27T15:35:59.345Z,98561.21
2019-06-27T15:38:29.237Z,98555.38
2019-06-27T15:40:59.388Z,98559.84
2019-06-27T15:43:29.278Z,98555.02
2019-06-27T15:45:59.439Z,98551.13
2019-06-27T15:48:29.436Z,98547.52
2019-06-27T15:50:59.356Z,98552.80
2019-06-27T15:53:29.255Z,98541.02
2019-06-27T15:55:59.293Z,98554.25
2019-06-27T15:58:33.758Z,98554.67
2019-06-27T16:01:03.713Z,98549.56
2019-06-27T16:03:33.578Z,98544.45
2019-06-27T16:06:09.446Z,98548.17
2019-06-27T16:08:35.191Z,98543.19
2019-06-27T16:11:05.199Z,98551.63
2019-06-27T16:13:35.116Z,98545.83
2019-06-27T16:16:05.107Z,98539.55
2019-06-27T16:18:34.979Z,98547.21
2019-06-27T16:21:05.043Z,98542.25
2019-06-27T16:23:34.949Z,98545.84
2019-06-27T16:26:05.117Z,98548.31
2019-06-27T16:28:35.086Z,98546.91
2019-06-27T16:31:05.346Z,98544.09
2019-06-27T16:33:35.337Z,98554.16
2019-06-27T16:36:05.341Z,98540.75
2019-06-27T16:38:35.294Z,98551.56
2019-06-27T16:41:05.220Z,98548.06
2019-06-27T16:43:35.580Z,98547.54
2019-06-27T16:46:05.638Z,98551.02
2019-06-27T16:48:35.510Z,98544.36
2019-06-27T16:51:05.555Z,98538.01
2019-06-27T16:53:35.444Z,98544.55
2019-06-27T16:56:05.462Z,98541.30
2019-06-27T16:58:35.386Z,98547.34
2019-06-27T17:01:05.380Z,98541.75
2019-06-27T17:03:35.373Z,98541.08
2019-06-27T17:06:05.631Z,98543.25
2019-06-27T17:08:35.593Z,98544.39
2019-06-27T17:11:05.659Z,98540.32
2019-06-27T17:13:35.538Z,98543.36
2019-06-27T17:16:05.529Z,98545.81
2019-06-27T17:18:35.463Z,98549.53
2019-06-27T17:21:05.454Z,98550.44
2019-06-27T17:23:36.114Z,98548.48
2019-06-27T17:26:11.347Z,98546.84
2019-06-27T17:28:37.859Z,98551.44
2019-06-27T17:31:07.812Z,98551.13
2019-06-27T17:33:37.680Z,98557.34
2019-06-27T17:36:07.582Z,98546.97
2019-06-27T17:38:37.488Z,98551.94
2019-06-27T17:41:07.488Z,98549.75
2019-06-27T17:43:37.365Z,98556.47
2019-06-27T17:46:07.270Z,98554.69
2019-06-27T17:48:37.212Z,98552.05
2019-06-27T17:51:08.112Z,98554.79
2019-06-27T17:53:38.165Z,98554.06
2019-06-27T17:56:08.100Z,98550.52
2019-06-27T17:58:37.983Z,98553.52
2019-06-27T18:01:07.927Z,98552.45
2019-06-27T18:03:38.106Z,98544.64
2019-06-27T18:06:07.962Z,98555.95
2019-06-27T18:08:41.280Z,98550.73
2019-06-27T18:11:11.188Z,98551.21
2019-06-27T18:13:41.171Z,98557.20
2019-06-27T18:16:11.113Z,98555.06
2019-06-27T18:18:41.118Z,98554.06
2019-06-27T18:21:11.033Z,98556.28
2019-06-27T18:23:40.931Z,98558.14
2019-06-27T18:26:10.882Z,98558.59
2019-06-27T18:28:40.778Z,98559.27
2019-06-27T18:31:10.672Z,98557.56
2019-06-27T18:33:40.832Z,98556.11
2019-06-27T18:36:10.732Z,98567.36
2019-06-27T18:38:40.618Z,98566.50
2019-06-27T18:41:12.841Z,98569.64
2019-06-27T18:43:42.345Z,98576.40
2019-06-27T18:46:12.237Z,98562.96
2019-06-27T18:48:42.213Z,98567.00
2019-06-27T18:51:12.152Z,98578.69
2019-06-27T18:53:42.066Z,98573.08
2019-06-27T18:56:12.191Z,98576.02
2019-06-27T18:58:42.167Z,98574.91
2019-06-27T19:01:12.039Z,98582.89
2019-06-27T19:03:41.953Z,98589.10
2019-06-27T19:06:12.209Z,98589.57
2019-06-27T19:08:42.241Z,98590.69
2019-06-27T19:11:12.102Z,98593.69
2019-06-27T19:13:42.026Z,98595.21
2019-06-27T19:16:12.172Z,98599.91
2019-06-27T19:18:46.137Z,98600.10
2019-06-27T19:21:22.871Z,98599.95
2019-06-27T19:24:01.949Z,98602.28
2019-06-27T19:26:31.933Z,98604.25
2019-06-27T19:29:02.552Z,98607.34
2019-06-27T19:31:32.389Z,98606.91
2019-06-27T19:34:02.296Z,98611.94
2019-06-27T19:36:32.812Z,98615.38
2019-06-27T19:39:02.780Z,98619.09
2019-06-27T19:41:32.663Z,98623.64
2019-06-27T19:44:02.638Z,98629.76
2019-06-27T19:46:32.594Z,98633.52
2019-06-27T19:49:03.365Z,98637.98
2019-06-27T19:51:33.227Z,98643.55
2019-06-27T19:54:03.177Z,98642.03
2019-06-27T19:56:33.778Z,98644.59
2019-06-27T19:59:03.730Z,98649.58
2019-06-27T20:01:33.629Z,98659.02
2019-06-27T20:04:04.456Z,98654.81
2019-06-27T20:06:34.399Z,98660.58
2019-06-27T20:09:05.202Z,98663.28
2019-06-27T20:11:35.759Z,98660.72
2019-06-27T20:14:05.913Z,98658.41
2019-06-27T20:16:36.043Z,98661.50
2019-06-27T20:19:06.212Z,98666.45
2019-06-27T20:21:37.084Z,98671.69
2019-06-27T20:24:07.091Z,98667.55
2019-06-27T20:26:36.968Z,98673.84
2019-06-27T20:29:07.206Z,98669.72
2019-06-27T20:31:37.068Z,98673.10
2019-06-27T20:34:07.054Z,98675.98
2019-06-27T20:36:37.502Z,98681.97
2019-06-27T20:39:08.355Z,98679.64
2019-06-27T20:41:38.289Z,98689.79
2019-06-27T20:44:08.629Z,98687.98
2019-06-27T20:46:38.509Z,98692.68
2019-06-27T20:49:08.659Z,98699.19
2019-06-27T20:51:38.540Z,98700.77
2019-06-27T20:54:12.116Z,98701.02
2019-06-27T20:56:40.847Z,98697.91
2019-06-27T20:59:11.085Z,98701.04
2019-06-27T21:01:41.092Z,98708.02
2019-06-27T21:04:11.113Z,98716.58
2019-06-27T21:06:41.590Z,98710.33
2019-06-27T21:09:11.518Z,98713.95
2019-06-27T21:11:41.422Z,98710.27
2019-06-27T21:14:11.951Z,98713.67
2019-06-27T21:16:41.881Z,98714.92
2019-06-27T21:19:11.804Z,98714.90
2019-06-27T21:21:41.696Z,98719.50
2019-06-27T21:24:11.869Z,98724.62
2019-06-27T21:26:42.421Z,98725.12
2019-06-27T21:29:12.374Z,98717.77
2019-06-27T21:31:42.298Z,98721.81
2019-06-27T21:34:12.276Z,98725.72
2019-06-27T21:36:42.461Z,98725.02
2019-06-27T21:39:12.680Z,98724.53
2019-06-27T21:41:42.651Z,98728.24
2019-06-27T21:44:13.349Z,98734.36
2019-06-27T21:46:43.233Z,98736.98
2019-06-27T21:49:13.239Z,98739.12
2019-06-27T21:51:43.116Z,98738.80
2019-06-27T21:54:13.103Z,98737.84
2019-06-27T21:56:42.992Z,98735.70
2019-06-27T21:59:12.889Z,98739.25
2019-06-27T22:01:42.896Z,98736.66
2019-06-27T22:04:13.551Z,98733.21
2019-06-27T22:06:43.772Z,98734.45
2019-06-27T22:09:24.056Z,98732.64
2019-06-27T22:11:45.821Z,98732.96
2019-06-27T22:14:15.974Z,98731.75
2019-06-27T22:16:45.937Z,98736.59
2019-06-27T22:19:15.849Z,98733.17
2019-06-27T22:21:45.818Z,98730.96
2019-06-27T22:24:16.125Z,98733.81
2019-06-27T22:26:46.339Z,98729.47
2019-06-27T22:29:16.364Z,98727.70
2019-06-27T22:31:46.293Z,98730.38
2019-06-27T22:34:16.218Z,98726.19
2019-06-27T22:36:46.136Z,98731.25
2019-06-27T22:39:40.397Z,98730.05
2019-06-27T22:42:23.094Z,98730.25
2019-06-27T22:45:10.587Z,98729.05
2019-06-27T22:47:58.080Z,98720.86
2019-06-27T22:50:46.018Z,98724.08
2019-06-27T22:53:20.942Z,98725.59
2019-06-27T22:55:51.245Z,98725.88
2019-06-27T22:58:21.415Z,98722.98
2019-06-27T23:00:51.439Z,98725.31
2019-06-27T23:03:21.401Z,98723.11
2019-06-27T23:05:51.357Z,98724.00
2019-06-27T23:08:21.687Z,98722.00
2019-06-27T23:10:51.626Z,98723.73
2019-06-27T23:13:21.817Z,98722.52
2019-06-27T23:15:51.698Z,98723.20
2019-06-27T23:18:21.646Z,98722.98
2019-06-27T23:20:51.543Z,98719.69
2019-06-27T23:23:21.712Z,98720.02
2019-06-27T23:25:51.675Z,98729.33
2019-06-27T23:28:22.395Z,98728.63
2019-06-27T23:30:52.321Z,98722.48
2019-06-27T23:33:22.617Z,98725.17
2019-06-27T23:35:52.529Z,98728.73
2019-06-27T23:38:22.603Z,98731.26
2019-06-27T23:40:52.712Z,98727.55
2019-06-27T23:43:22.640Z,98729.36
2019-06-27T23:45:53.477Z,98727.59
2019-06-27T23:48:23.395Z,98725.97
2019-06-27T23:50:53.371Z,98726.03
2019-06-27T23:53:23.245Z,98726.77
2019-06-27T23:55:53.148Z,98725.91
2019-06-27T23:58:23.025Z,98723.86
